createdAt,value
2018-03-30T00:01:38.232Z,100690.48
2018-03-30T00:04:05.862Z,100692.20
2018-03-30T00:06:33.465Z,100688.34
2018-03-30T00:09:01.087Z,100686.22
2018-03-30T00:11:28.701Z,100698.58
2018-03-30T00:13:56.356Z,100690.38
2018-03-30T00:16:23.967Z,100685.66
2018-03-30T00:18:51.593Z,100686.45
2018-03-30T00:21:19.246Z,100694.09
2018-03-30T00:23:46.908Z,100697.83
2018-03-30T00:26:14.568Z,100696.47
2018-03-30T00:28:42.238Z,100696.88
2018-03-30T00:31:09.845Z,100700.63
2018-03-30T00:33:37.556Z,100707.84
2018-03-30T00:36:05.162Z,100701.39
2018-03-30T00:38:32.773Z,100706.92
2018-03-30T00:41:00.449Z,100709.95
2018-03-30T00:43:28.052Z,100709.52
2018-03-30T00:45:55.768Z,100714.16
2018-03-30T00:48:23.370Z,100716.72
2018-03-30T00:50:50.996Z,100723.47
2018-03-30T00:53:30.433Z,100724.75
2018-03-30T00:55:58.097Z,100720.91
2018-03-30T00:58:25.764Z,100716.52
2018-03-30T01:00:53.424Z,100721.30
2018-03-30T01:03:21.030Z,100717.39
2018-03-30T01:05:48.661Z,100719.94
2018-03-30T01:08:16.259Z,100716.83
2018-03-30T01:10:43.880Z,100708.58
2018-03-30T01:13:11.541Z,100706.24
2018-03-30T01:15:39.164Z,100708.48
2018-03-30T01:18:06.764Z,100713.72
2018-03-30T01:20:34.425Z,100715.06
2018-03-30T01:23:02.083Z,100711.36
2018-03-30T01:25:29.715Z,100727.18
2018-03-30T01:27:57.323Z,100734.50
2018-03-30T01:30:24.948Z,100742.31
2018-03-30T01:32:52.624Z,100736.88
2018-03-30T01:35:20.255Z,100736.20
2018-03-30T01:37:47.956Z,100746.73
2018-03-30T01:40:15.580Z,100755.59
2018-03-30T01:42:43.184Z,100762.93
2018-03-30T01:45:10.808Z,100762.98
2018-03-30T01:47:38.420Z,100765.63
2018-03-30T01:50:06.040Z,100771.76
2018-03-30T01:52:33.649Z,100766.84
2018-03-30T01:55:01.275Z,100772.13
2018-03-30T01:57:28.881Z,100781.26
2018-03-30T01:59:56.508Z,100778.02
2018-03-30T02:02:24.112Z,100779.84
2018-03-30T02:04:51.755Z,100774.38
2018-03-30T02:07:19.360Z,100776.56
2018-03-30T02:09:46.990Z,100774.08
2018-03-30T02:12:14.720Z,100780.08
2018-03-30T02:14:42.344Z,100784.44
2018-03-30T02:17:09.949Z,100783.62
2018-03-30T02:19:37.582Z,100787.02
2018-03-30T02:22:05.184Z,100793.02
2018-03-30T02:24:32.799Z,100797.41
2018-03-30T02:27:00.441Z,100793.63
2018-03-30T02:29:28.052Z,100792.38
2018-03-30T02:31:55.717Z,100791.06
2018-03-30T02:34:23.326Z,100790.68
2018-03-30T02:36:50.949Z,100794.61
2018-03-30T02:39:18.602Z,100799.73
2018-03-30T02:41:46.223Z,100798.42
2018-03-30T02:44:13.826Z,100806.11
2018-03-30T02:46:41.447Z,100811.04
2018-03-30T02:49:09.047Z,100813.08
2018-03-30T02:51:36.670Z,100810.00
2018-03-30T02:54:04.275Z,100806.11
2018-03-30T02:56:31.933Z,100806.48
2018-03-30T02:58:59.593Z,100808.61
2018-03-30T03:01:27.215Z,100810.67
2018-03-30T03:03:54.849Z,100811.84
2018-03-30T03:06:22.491Z,100814.84
2018-03-30T03:08:50.140Z,100819.03
2018-03-30T03:11:17.803Z,100820.14
2018-03-30T03:13:45.399Z,100824.51
2018-03-30T03:16:13.128Z,100825.53
2018-03-30T03:18:40.732Z,100829.46
2018-03-30T03:21:08.360Z,100833.19
2018-03-30T03:23:36.117Z,100829.58
2018-03-30T03:26:03.784Z,100829.58
2018-03-30T03:28:31.445Z,100824.81
2018-03-30T03:30:59.113Z,100827.63
2018-03-30T03:33:26.772Z,100831.67
2018-03-30T03:35:54.398Z,100836.00
2018-03-30T03:38:21.995Z,100822.42
2018-03-30T03:40:49.623Z,100827.14
2018-03-30T03:43:17.326Z,100831.44
2018-03-30T03:45:44.956Z,100830.61
2018-03-30T03:48:12.600Z,100840.07
2018-03-30T03:50:40.224Z,100840.58
2018-03-30T03:53:07.819Z,100843.33
2018-03-30T03:55:35.522Z,100850.78
2018-03-30T03:58:03.127Z,100846.35
2018-03-30T04:00:30.752Z,100849.25
2018-03-30T04:02:58.429Z,100847.51
2018-03-30T04:05:26.104Z,100842.73
2018-03-30T04:07:53.843Z,100848.62
2018-03-30T04:10:21.459Z,100845.98
2018-03-30T04:12:49.155Z,100853.12
2018-03-30T04:15:16.831Z,100851.75
2018-03-30T04:17:44.604Z,100858.89
2018-03-30T04:20:12.260Z,100865.92
2018-03-30T04:22:39.887Z,100873.94
2018-03-30T04:25:07.592Z,100871.72
2018-03-30T04:27:35.305Z,100879.89
2018-03-30T04:30:02.901Z,100883.75
2018-03-30T04:32:30.685Z,100883.47
2018-03-30T04:34:58.293Z,100881.92
2018-03-30T04:37:25.923Z,100885.47
2018-03-30T04:39:53.604Z,100884.82
2018-03-30T04:42:21.237Z,100882.02
2018-03-30T04:44:48.847Z,100880.12
2018-03-30T04:47:16.556Z,100879.89
2018-03-30T04:49:44.157Z,100883.14
2018-03-30T04:52:11.876Z,100890.31
2018-03-30T04:54:39.479Z,100887.50
2018-03-30T04:57:07.108Z,100887.77
2018-03-30T04:59:34.716Z,100887.61
2018-03-30T05:02:02.439Z,100892.13
2018-03-30T05:04:30.089Z,100891.06
2018-03-30T05:06:57.716Z,100888.63
2018-03-30T05:09:25.413Z,100881.14
2018-03-30T05:11:53.075Z,100883.94
2018-03-30T05:14:20.739Z,100870.98
2018-03-30T05:16:48.408Z,100870.38
2018-03-30T05:19:16.008Z,100868.37
2018-03-30T05:21:43.728Z,100867.16
2018-03-30T05:24:11.331Z,100864.94
2018-03-30T05:26:38.952Z,100858.42
2018-03-30T05:29:06.611Z,100864.27
2018-03-30T05:31:34.235Z,100862.81
2018-03-30T05:34:01.945Z,100861.44
2018-03-30T05:36:29.616Z,100855.04
2018-03-30T05:38:57.240Z,100847.36
2018-03-30T05:41:24.933Z,100846.55
2018-03-30T05:43:52.552Z,100837.66
2018-03-30T05:46:20.149Z,100829.16
2018-03-30T05:48:47.806Z,100834.75
2018-03-30T05:51:15.484Z,100840.83
2018-03-30T05:53:43.117Z,100848.62
2018-03-30T05:56:10.723Z,100850.77
2018-03-30T05:58:38.472Z,100848.33
2018-03-30T06:01:06.071Z,100859.24
2018-03-30T06:03:33.704Z,100866.81
2018-03-30T06:06:01.331Z,100870.97
2018-03-30T06:08:29.012Z,100877.72
2018-03-30T06:10:56.676Z,100873.84
2018-03-30T06:13:24.319Z,100878.06
2018-03-30T06:15:52.003Z,100883.09
2018-03-30T06:18:19.676Z,100887.31
2018-03-30T06:20:47.344Z,100889.25
2018-03-30T06:23:14.977Z,100892.48
2018-03-30T06:25:42.661Z,100889.65
2018-03-30T06:28:10.315Z,100899.25
2018-03-30T06:30:37.985Z,100901.17
2018-03-30T06:33:05.653Z,100908.72
2018-03-30T06:35:33.314Z,100908.52
2018-03-30T06:38:00.949Z,100912.56
2018-03-30T06:40:28.565Z,100914.44
2018-03-30T06:42:57.733Z,100923.06
2018-03-30T06:45:25.340Z,100921.39
2018-03-30T06:47:52.968Z,100932.91
2018-03-30T06:50:20.613Z,100935.88
2018-03-30T06:52:48.245Z,100939.63
2018-03-30T06:55:15.945Z,100944.64
2018-03-30T06:57:43.705Z,100946.56
2018-03-30T07:00:11.220Z,100952.32
2018-03-30T07:02:38.847Z,100952.05
2018-03-30T07:05:06.493Z,100951.45
2018-03-30T07:07:34.152Z,100952.96
2018-03-30T07:10:01.766Z,100954.30
2018-03-30T07:12:29.385Z,100950.90
2018-03-30T07:14:57.014Z,100953.16
2018-03-30T07:17:24.705Z,100954.60
2018-03-30T07:19:52.327Z,100960.48
2018-03-30T07:22:19.927Z,100955.97
2018-03-30T07:24:47.580Z,100957.23
2018-03-30T07:27:15.253Z,100959.64
2018-03-30T07:29:42.883Z,100959.05
2018-03-30T07:32:10.501Z,100957.30
2018-03-30T07:34:38.124Z,100955.71
2018-03-30T07:37:05.791Z,100958.41
2018-03-30T07:39:33.464Z,100960.13
2018-03-30T07:42:01.075Z,100956.83
2018-03-30T07:44:28.704Z,100957.70
2018-03-30T07:46:56.305Z,100965.84
2018-03-30T07:49:23.927Z,100962.87
2018-03-30T07:51:51.533Z,100966.11
2018-03-30T07:54:19.167Z,100960.75
2018-03-30T07:56:46.772Z,100963.91
2018-03-30T07:59:14.401Z,100970.48
2018-03-30T08:01:42.005Z,100972.36
2018-03-30T08:04:09.632Z,100979.75
2018-03-30T08:06:37.268Z,100972.63
2018-03-30T08:09:05.027Z,100973.77
2018-03-30T08:11:32.672Z,100974.91
2018-03-30T08:14:00.323Z,100978.25
2018-03-30T08:16:27.922Z,100984.24
2018-03-30T08:18:55.547Z,100983.41
2018-03-30T08:21:23.198Z,100979.56
2018-03-30T08:23:50.881Z,100982.97
2018-03-30T08:26:18.519Z,100987.03
2018-03-30T08:28:46.145Z,100991.00
2018-03-30T08:31:13.748Z,100995.42
2018-03-30T08:33:41.377Z,100990.43
2018-03-30T08:36:09.088Z,100992.39
2018-03-30T08:38:36.737Z,100995.58
2018-03-30T08:41:04.335Z,100992.73
2018-03-30T08:43:31.975Z,100996.66
2018-03-30T08:45:59.585Z,100990.73
2018-03-30T08:48:27.304Z,100996.66
2018-03-30T08:50:54.973Z,100998.48
2018-03-30T08:53:22.583Z,100996.87
2018-03-30T08:55:50.203Z,101001.80
2018-03-30T08:58:17.809Z,101000.17
2018-03-30T09:00:45.449Z,100997.40
2018-03-30T09:03:13.080Z,100993.77
2018-03-30T09:05:40.836Z,100996.71
2018-03-30T09:08:08.506Z,100999.66
2018-03-30T09:10:36.128Z,101005.21
2018-03-30T09:13:03.824Z,101002.20
2018-03-30T09:15:31.492Z,100999.66
2018-03-30T09:17:59.161Z,101000.52
2018-03-30T09:20:26.803Z,101005.58
2018-03-30T09:22:54.417Z,101005.41
2018-03-30T09:25:22.044Z,101007.06
2018-03-30T09:27:49.645Z,101006.20
2018-03-30T09:30:17.269Z,101000.64
2018-03-30T09:32:44.923Z,101002.72
2018-03-30T09:35:12.584Z,101000.88
2018-03-30T09:37:40.257Z,100994.25
2018-03-30T09:40:07.883Z,100994.48
2018-03-30T09:42:35.576Z,100996.47
2018-03-30T09:45:03.207Z,101000.59
2018-03-30T09:47:30.816Z,100996.01
2018-03-30T09:49:58.470Z,100997.01
2018-03-30T09:52:26.073Z,100994.17
2018-03-30T09:54:53.696Z,100989.20
2018-03-30T09:57:21.300Z,100994.95
2018-03-30T09:59:49.008Z,100986.44
2018-03-30T10:02:16.612Z,100983.11
2018-03-30T10:04:44.919Z,100988.36
2018-03-30T10:07:12.525Z,100987.14
2018-03-30T10:09:40.231Z,100981.09
2018-03-30T10:12:07.945Z,100983.19
2018-03-30T10:14:35.605Z,100980.48
2018-03-30T10:17:03.221Z,100988.22
2018-03-30T10:19:30.927Z,100988.16
2018-03-30T10:21:58.537Z,100988.01
2018-03-30T10:24:26.168Z,100987.49
2018-03-30T10:26:53.812Z,100983.09
2018-03-30T10:29:21.472Z,100986.42
2018-03-30T10:31:49.145Z,100984.27
2018-03-30T10:34:16.805Z,100979.66
2018-03-30T10:36:44.427Z,100983.13
2018-03-30T10:39:12.186Z,100976.73
2018-03-30T10:41:39.819Z,100971.20
2018-03-30T10:44:07.453Z,100969.97
2018-03-30T10:46:35.123Z,100972.58
2018-03-30T10:49:02.773Z,100977.81
2018-03-30T10:51:30.408Z,100974.73
2018-03-30T10:53:58.020Z,100970.80
2018-03-30T10:56:25.768Z,100967.40
2018-03-30T10:58:53.381Z,100964.45
2018-03-30T11:01:21.016Z,100958.92
2018-03-30T11:03:48.646Z,100961.59
2018-03-30T11:06:16.276Z,100956.99
2018-03-30T11:08:43.974Z,100964.45
2018-03-30T11:11:11.609Z,100960.57
2018-03-30T11:13:39.233Z,100962.80
2018-03-30T11:16:06.859Z,100958.94
2018-03-30T11:18:34.468Z,100954.70
2018-03-30T11:21:02.092Z,100960.07
2018-03-30T11:23:29.756Z,100955.84
2018-03-30T11:25:57.375Z,100963.66
2018-03-30T11:28:24.985Z,100955.95
2018-03-30T11:30:52.676Z,100952.45
2018-03-30T11:33:20.264Z,100954.91
2018-03-30T11:35:48.704Z,100954.02
2018-03-30T11:38:16.303Z,100955.34
2018-03-30T11:40:43.936Z,100957.63
2018-03-30T11:43:11.532Z,100948.64
2018-03-30T11:45:39.184Z,100950.09
2018-03-30T11:48:06.883Z,100948.88
2018-03-30T11:50:34.516Z,100941.63
2018-03-30T11:53:02.161Z,100940.02
2018-03-30T11:55:29.797Z,100939.16
2018-03-30T11:57:57.405Z,100942.30
2018-03-30T12:00:25.057Z,100935.10
2018-03-30T12:02:52.663Z,100934.76
2018-03-30T12:05:20.332Z,100922.81
2018-03-30T12:07:47.974Z,100926.86
2018-03-30T12:10:15.576Z,100923.91
2018-03-30T12:12:43.291Z,100920.78
2018-03-30T12:15:10.973Z,100917.64
2018-03-30T12:17:38.600Z,100912.91
2018-03-30T12:20:06.196Z,100908.23
2018-03-30T12:22:33.860Z,100902.37
2018-03-30T12:25:01.464Z,100897.25
2018-03-30T12:27:29.102Z,100891.34
2018-03-30T12:29:56.721Z,100885.86
2018-03-30T12:32:24.344Z,100883.77
2018-03-30T12:34:51.952Z,100889.85
2018-03-30T12:37:19.600Z,100881.28
2018-03-30T12:39:47.301Z,100889.09
2018-03-30T12:42:14.942Z,100880.10
2018-03-30T12:44:42.616Z,100875.42
2018-03-30T12:47:11.001Z,100872.03
2018-03-30T12:49:38.678Z,100865.67
2018-03-30T12:52:06.328Z,100869.72
2018-03-30T12:54:34.073Z,100868.98
2018-03-30T12:57:01.697Z,100872.21
2018-03-30T12:59:29.305Z,100867.63
2018-03-30T13:01:56.935Z,100869.08
2018-03-30T13:04:24.568Z,100862.28
2018-03-30T13:06:52.200Z,100857.26
2018-03-30T13:09:19.804Z,100846.50
2018-03-30T13:11:47.424Z,100848.14
2018-03-30T13:14:15.084Z,100834.80
2018-03-30T13:16:42.747Z,100833.47
2018-03-30T13:19:10.347Z,100826.13
2018-03-30T13:21:38.076Z,100827.46
2018-03-30T13:24:05.685Z,100822.72
2018-03-30T13:26:33.427Z,100824.83
2018-03-30T13:29:01.019Z,100825.20
2018-03-30T13:31:28.648Z,100822.14
2018-03-30T13:33:56.293Z,100816.57
2018-03-30T13:36:23.948Z,100820.45
2018-03-30T13:38:51.543Z,100810.97
2018-03-30T13:41:19.281Z,100813.13
2018-03-30T13:43:46.945Z,100811.39
2018-03-30T13:46:14.552Z,100807.50
2018-03-30T13:48:42.175Z,100814.75
2018-03-30T13:51:14.127Z,100808.17
2018-03-30T13:53:41.794Z,100805.38
2018-03-30T13:56:20.939Z,100797.90
2018-03-30T13:58:49.192Z,100793.42
2018-03-30T14:01:18.600Z,100791.49
2018-03-30T14:03:51.647Z,100789.66
2018-03-30T14:06:25.644Z,100777.52
2018-03-30T14:09:06.437Z,100779.25
2018-03-30T14:11:39.710Z,100765.84
2018-03-30T14:14:07.428Z,100767.59
2018-03-30T14:16:35.747Z,100758.54
2018-03-30T14:19:05.823Z,100762.86
2018-03-30T14:24:30.443Z,100753.16
2018-03-30T14:27:03.529Z,100752.24
2018-03-30T14:29:31.208Z,100747.88
2018-03-30T14:34:58.441Z,100734.78
2018-03-30T14:37:29.661Z,100730.38
2018-03-30T14:40:07.834Z,100734.67
2018-03-30T14:42:37.427Z,100735.86
2018-03-30T14:45:10.733Z,100737.05
2018-03-30T14:47:42.757Z,100732.19
2018-03-30T14:50:25.920Z,100730.72
2018-03-30T14:52:55.271Z,100720.64
2018-03-30T14:55:23.591Z,100710.98
2018-03-30T14:57:58.724Z,100719.84
2018-03-30T15:00:29.781Z,100726.17
2018-03-30T15:06:21.213Z,100721.20
2018-03-30T15:08:49.632Z,100715.92
2018-03-30T15:14:20.717Z,100717.58
2018-03-30T15:16:50.575Z,100713.64
2018-03-30T15:19:18.852Z,100710.12
2018-03-30T15:21:48.947Z,100715.17
2018-03-30T15:24:20.022Z,100707.31
2018-03-30T15:26:52.533Z,100711.48
2018-03-30T15:29:20.855Z,100715.23
2018-03-30T15:31:51.370Z,100713.45
2018-03-30T15:34:19.797Z,100718.11
2018-03-30T15:36:48.944Z,100719.71
2018-03-30T15:39:16.581Z,100715.77
2018-03-30T15:41:44.302Z,100712.27
2018-03-30T15:44:11.949Z,100710.54
2018-03-30T15:46:44.260Z,100712.20
2018-03-30T15:49:11.888Z,100716.88
2018-03-30T15:51:43.148Z,100713.38
2018-03-30T15:54:10.221Z,100712.02
2018-03-30T15:56:38.583Z,100721.41
2018-03-30T15:59:06.184Z,100724.77
2018-03-30T16:01:33.899Z,100724.20
2018-03-30T16:04:01.517Z,100720.59
2018-03-30T16:06:29.136Z,100714.84
2018-03-30T16:08:56.832Z,100723.32
2018-03-30T16:11:30.236Z,100720.61
2018-03-30T16:13:57.869Z,100732.50
2018-03-30T16:16:25.500Z,100730.57
2018-03-30T16:18:56.488Z,100727.75
2018-03-30T16:21:23.614Z,100723.61
2018-03-30T16:23:50.687Z,100725.99
2018-03-30T16:26:17.804Z,100727.54
2018-03-30T16:28:44.956Z,100723.03
2018-03-30T16:31:12.015Z,100728.47
2018-03-30T16:33:39.100Z,100725.22
2018-03-30T16:36:06.178Z,100733.95
2018-03-30T16:38:33.280Z,100734.98
2018-03-30T16:41:00.344Z,100735.13
2018-03-30T16:43:27.431Z,100735.73
2018-03-30T16:45:55.311Z,100739.38
2018-03-30T16:48:22.469Z,100742.19
2018-03-30T16:50:49.549Z,100741.53
2018-03-30T16:53:16.777Z,100740.44
2018-03-30T16:55:43.927Z,100738.11
2018-03-30T16:58:11.068Z,100746.94
2018-03-30T17:00:38.131Z,100755.78
2018-03-30T17:03:05.268Z,100753.44
2018-03-30T17:05:32.331Z,100763.50
2018-03-30T17:07:59.420Z,100755.53
2018-03-30T17:10:26.517Z,100754.84
2018-03-30T17:12:53.623Z,100752.84
2018-03-30T17:15:20.711Z,100752.59
2018-03-30T17:17:47.864Z,100755.33
2018-03-30T17:20:15.025Z,100754.26
2018-03-30T17:22:42.107Z,100747.97
2018-03-30T17:25:09.168Z,100746.36
2018-03-30T17:27:36.251Z,100750.78
2018-03-30T17:30:03.323Z,100752.13
2018-03-30T17:32:30.411Z,100753.59
2018-03-30T17:34:57.506Z,100750.70
2018-03-30T17:37:24.597Z,100758.56
2018-03-30T17:39:51.660Z,100759.53
2018-03-30T17:42:18.745Z,100766.97
2018-03-30T17:44:45.807Z,100766.69
2018-03-30T17:47:12.960Z,100768.16
2018-03-30T17:49:40.056Z,100766.59
2018-03-30T17:52:07.122Z,100768.89
2018-03-30T17:54:34.219Z,100770.38
2018-03-30T17:57:01.288Z,100763.26
2018-03-30T17:59:28.407Z,100767.75
2018-03-30T18:01:55.468Z,100766.25
2018-03-30T18:04:22.600Z,100763.88
2018-03-30T18:06:49.663Z,100766.66
2018-03-30T18:09:16.808Z,100769.39
2018-03-30T18:11:43.878Z,100777.80
2018-03-30T18:14:10.972Z,100777.95
2018-03-30T18:16:38.060Z,100774.38
2018-03-30T18:19:05.224Z,100786.17
2018-03-30T18:21:32.293Z,100786.37
2018-03-30T18:23:59.380Z,100790.88
2018-03-30T18:26:26.444Z,100792.31
2018-03-30T18:28:53.537Z,100779.64
2018-03-30T18:31:20.603Z,100773.88
2018-03-30T18:33:47.689Z,100781.36
2018-03-30T18:36:14.753Z,100778.61
2018-03-30T18:38:41.877Z,100780.91
2018-03-30T18:41:09.048Z,100784.17
2018-03-30T18:43:36.141Z,100782.24
2018-03-30T18:46:03.213Z,100776.49
2018-03-30T18:48:30.393Z,100780.19
2018-03-30T18:50:57.461Z,100780.84
2018-03-30T18:53:24.601Z,100777.20
2018-03-30T18:55:51.669Z,100769.35
2018-03-30T18:58:18.752Z,100775.16
2018-03-30T19:00:45.853Z,100768.97
2018-03-30T19:03:12.939Z,100770.61
2018-03-30T19:05:40.049Z,100766.14
2018-03-30T19:08:07.192Z,100763.02
2018-03-30T19:10:34.288Z,100767.53
2018-03-30T19:13:01.356Z,100768.27
2018-03-30T19:15:28.539Z,100765.14
2018-03-30T19:17:55.701Z,100762.38
2018-03-30T19:20:22.787Z,100763.59
2018-03-30T19:22:49.901Z,100760.50
2018-03-30T19:25:16.988Z,100749.22
2018-03-30T19:27:44.093Z,100744.05
2018-03-30T19:30:11.181Z,100747.75
2018-03-30T19:32:38.301Z,100749.71
2018-03-30T19:35:05.397Z,100750.50
2018-03-30T19:37:32.463Z,100752.55
2018-03-30T19:39:59.650Z,100753.73
2018-03-30T19:42:26.753Z,100749.35
2018-03-30T19:44:53.839Z,100753.08
2018-03-30T19:47:20.906Z,100748.28
2018-03-30T19:49:47.991Z,100750.77
2018-03-30T19:52:15.058Z,100742.98
2018-03-30T19:54:42.139Z,100742.48
2018-03-30T19:57:09.291Z,100750.55
2018-03-30T19:59:36.392Z,100741.03
2018-03-30T20:02:03.456Z,100736.70
2018-03-30T20:04:30.541Z,100735.80
2018-03-30T20:06:57.683Z,100738.25
2018-03-30T20:09:24.836Z,100738.58
2018-03-30T20:11:51.900Z,100739.83
2018-03-30T20:14:19.003Z,100750.41
2018-03-30T20:16:46.082Z,100743.47
2018-03-30T20:19:13.172Z,100744.28
2018-03-30T20:21:40.284Z,100742.08
2018-03-30T20:24:07.368Z,100736.47
2018-03-30T20:26:34.436Z,100741.47
2018-03-30T20:29:01.530Z,100743.09
2018-03-30T20:31:28.679Z,100737.00
2018-03-30T20:33:55.741Z,100736.04
2018-03-30T20:36:22.837Z,100736.80
2018-03-30T20:38:49.927Z,100732.49
2018-03-30T20:41:17.026Z,100728.56
2018-03-30T20:43:44.096Z,100727.20
2018-03-30T20:46:11.277Z,100722.44
2018-03-30T20:48:38.364Z,100714.65
2018-03-30T20:51:05.456Z,100717.59
2018-03-30T20:53:32.518Z,100723.03
2018-03-30T20:55:59.599Z,100709.30
2018-03-30T20:58:26.750Z,100711.84
2018-03-30T21:00:53.976Z,100711.41
2018-03-30T21:03:21.061Z,100718.14
2018-03-30T21:05:48.228Z,100714.72
2018-03-30T21:08:15.309Z,100714.69
2018-03-30T21:10:42.486Z,100708.70
2018-03-30T21:13:09.553Z,100712.48
2018-03-30T21:15:36.680Z,100714.05
2018-03-30T21:18:03.744Z,100716.14
2018-03-30T21:20:30.903Z,100721.58
2018-03-30T21:22:57.968Z,100713.38
2018-03-30T21:25:25.132Z,100708.65
2018-03-30T21:27:52.277Z,100699.61
2018-03-30T21:30:19.444Z,100693.63
2018-03-30T21:32:46.513Z,100694.44
2018-03-30T21:35:13.600Z,100693.53
2018-03-30T21:37:40.671Z,100696.53
2018-03-30T21:40:07.776Z,100696.50
2018-03-30T21:42:34.839Z,100703.39
2018-03-30T21:45:02.076Z,100704.58
2018-03-30T21:47:29.229Z,100709.70
2018-03-30T21:49:56.380Z,100717.72
2018-03-30T21:52:23.532Z,100718.09
2018-03-30T21:54:50.616Z,100715.08
2018-03-30T21:57:17.724Z,100710.77
2018-03-30T21:59:44.776Z,100712.89
2018-03-30T22:02:12.037Z,100703.06
2018-03-30T22:04:39.184Z,100701.33
2018-03-30T22:07:06.351Z,100697.06
2018-03-30T22:09:33.412Z,100707.66
2018-03-30T22:12:00.637Z,100707.22
2018-03-30T22:14:27.782Z,100711.44
2018-03-30T22:16:55.044Z,100708.91
2018-03-30T22:19:22.103Z,100707.11
2018-03-30T22:21:49.197Z,100701.99
2018-03-30T22:24:16.348Z,100692.61
2018-03-30T22:26:43.545Z,100699.84
2018-03-30T22:29:10.701Z,100699.81
2018-03-30T22:31:37.784Z,100695.14
2018-03-30T22:34:04.847Z,100696.83
2018-03-30T22:36:32.049Z,100696.41
2018-03-30T22:38:59.112Z,100693.02
2018-03-30T22:41:26.195Z,100691.77
2018-03-30T22:43:53.255Z,100682.44
2018-03-30T22:46:20.440Z,100669.69
2018-03-30T22:48:47.505Z,100663.31
2018-03-30T22:51:14.637Z,100666.38
2018-03-30T22:53:41.706Z,100670.27
2018-03-30T22:56:08.836Z,100663.93
2018-03-30T22:58:35.903Z,100669.07
2018-03-30T23:01:03.037Z,100670.90
2018-03-30T23:03:30.186Z,100676.86
2018-03-30T23:05:57.272Z,100676.45
2018-03-30T23:08:24.340Z,100677.81
2018-03-30T23:10:51.437Z,100675.26
2018-03-30T23:13:18.592Z,100682.11
2018-03-30T23:15:45.740Z,100681.25
2018-03-30T23:18:12.888Z,100661.63
2018-03-30T23:20:39.981Z,100658.25
2018-03-30T23:23:07.052Z,100660.37
2018-03-30T23:25:34.125Z,100656.52
2018-03-30T23:28:01.389Z,100662.00
2018-03-30T23:30:28.460Z,100654.73
2018-03-30T23:32:55.561Z,100653.52
2018-03-30T23:35:22.689Z,100659.45
2018-03-30T23:37:49.748Z,100656.42
2018-03-30T23:40:16.820Z,100653.44
2018-03-30T23:42:43.984Z,100649.13
2018-03-30T23:45:11.139Z,100644.37
2018-03-30T23:47:38.224Z,100642.27
2018-03-30T23:50:05.298Z,100634.98
2018-03-30T23:52:32.464Z,100634.11
2018-03-30T23:54:59.541Z,100631.06
2018-03-30T23:57:26.642Z,100631.06
2018-03-30T23:59:53.717Z,100615.28
